Time;durP1;ratioP1;P1;durP2;ratioP2;P2;SDS_P1;SDS_P2;PMS_P1;PMS_P2;Temp;Humidity;BMP_temperature;BMP_pressure;BME280_temperature;BME280_humidity;BME280_pressure;Samples;Min_cycle;Max_cycle;Signal;HPM_P1;HPM_P2
2023/05/29 00:00:17;;;;;;;2.90;2.20;;;17.40;59.20;;;;;;6177794;22;20035;-54
2023/05/29 00:02:50;;;;;;;2.65;2.20;;;17.40;59.20;;;;;;6177445;22;20009;-51
2023/05/29 00:05:16;;;;;;;3.35;2.20;;;17.40;59.20;;;;;;6178271;22;20005;-54
2023/05/29 00:07:42;;;;;;;4.65;2.40;;;17.40;59.30;;;;;;6178739;22;20005;-53
2023/05/29 00:10:10;;;;;;;4.13;2.22;;;17.30;59.40;;;;;;6178235;22;20076;-54
2023/05/29 00:12:36;;;;;;;4.10;2.70;;;17.30;59.70;;;;;;6177405;22;20005;-53
2023/05/29 00:15:05;;;;;;;3.33;2.35;;;17.30;60.10;;;;;;6177967;22;20421;-50
2023/05/29 00:17:34;;;;;;;3.15;2.42;;;17.30;59.70;;;;;;6178380;22;20333;-51
2023/05/29 00:20:02;;;;;;;3.55;2.40;;;17.30;59.90;;;;;;6177840;22;20452;-54
2023/05/29 00:22:28;;;;;;;3.58;2.50;;;17.20;60.20;;;;;;6178020;22;20014;-52
2023/05/29 00:24:54;;;;;;;5.78;2.90;;;17.20;60.10;;;;;;6178107;22;20051;-51
2023/05/29 00:27:20;;;;;;;4.57;2.70;;;17.20;60.00;;;;;;6177865;23;20072;-54
2023/05/29 00:29:46;;;;;;;3.85;2.47;;;17.20;60.10;;;;;;6178515;22;20048;-54
2023/05/29 00:32:12;;;;;;;5.05;2.95;;;17.20;60.00;;;;;;6177717;22;20013;-53
2023/05/29 00:34:37;;;;;;;3.60;2.58;;;17.10;60.00;;;;;;6177995;22;20047;-54
2023/05/29 00:37:03;;;;;;;6.28;2.90;;;17.20;60.00;;;;;;6177642;22;20356;-54
2023/05/29 00:39:29;;;;;;;3.70;2.75;;;17.10;60.00;;;;;;6178320;22;20005;-53
2023/05/29 00:41:56;;;;;;;3.47;2.30;;;17.10;60.20;;;;;;6176921;23;20417;-52
2023/05/29 00:44:22;;;;;;;4.85;2.80;;;17.10;60.20;;;;;;6177231;22;20005;-52
2023/05/29 00:46:50;;;;;;;4.28;2.72;;;17.10;60.60;;;;;;6178245;22;20007;-52
2023/05/29 00:49:17;;;;;;;3.78;2.30;;;17.10;60.20;;;;;;6177940;22;20390;-52
2023/05/29 00:51:44;;;;;;;2.70;2.20;;;17.10;60.20;;;;;;6177436;23;20611;-51
2023/05/29 00:54:13;;;;;;;2.80;2.45;;;17.00;60.00;;;;;;6178372;22;20013;-51
2023/05/29 00:56:44;;;;;;;4.28;2.47;;;17.00;60.20;;;;;;6177646;22;20020;-52
2023/05/29 00:59:13;;;;;;;3.75;2.42;;;17.10;60.30;;;;;;6177729;22;20012;-51
2023/05/29 01:01:39;;;;;;;5.70;2.55;;;17.00;60.60;;;;;;6177147;22;20032;-52
2023/05/29 01:04:06;;;;;;;4.80;2.67;;;17.00;60.50;;;;;;6177868;22;20008;-52
2023/05/29 01:06:33;;;;;;;5.50;2.50;;;17.00;60.40;;;;;;6177688;23;20012;-54
2023/05/29 01:08:58;;;;;;;4.57;2.50;;;17.00;60.50;;;;;;6178377;22;20007;-53
2023/05/29 01:12:02;;;;;;;3.22;2.40;;;16.90;60.70;;;;;;6177450;22;20037;-51
2023/05/29 01:14:40;;;;;;;3.28;2.50;;;16.90;61.30;;;;;;6177604;22;20336;-52
2023/05/29 01:17:30;;;;;;;3.10;2.30;;;16.90;61.40;;;;;;6177947;22;20005;-54
2023/05/29 01:20:09;;;;;;;2.85;2.50;;;16.90;60.90;;;;;;6176870;23;20024;-52
2023/05/29 01:23:03;;;;;;;3.08;2.42;;;16.90;60.70;;;;;;6177575;23;20448;-52
2023/05/29 01:25:49;;;;;;;2.80;2.25;;;16.90;60.80;;;;;;6178051;22;20001;-53
2023/05/29 01:28:19;;;;;;;5.05;2.50;;;16.90;60.70;;;;;;6178435;22;20008;-53
2023/05/29 01:30:46;;;;;;;3.30;2.70;;;16.90;60.90;;;;;;6176779;22;20040;-54
2023/05/29 01:33:12;;;;;;;3.83;2.60;;;16.90;61.00;;;;;;6178314;22;20558;-51
2023/05/29 01:35:37;;;;;;;5.25;2.30;;;16.90;60.80;;;;;;6177982;22;20134;-54
2023/05/29 01:38:03;;;;;;;3.95;2.30;;;16.90;60.90;;;;;;6177919;22;20431;-54
2023/05/29 01:40:28;;;;;;;3.45;2.47;;;16.90;61.10;;;;;;6177271;22;20872;-53
2023/05/29 01:42:55;;;;;;;5.13;2.50;;;17.00;61.20;;;;;;6177350;22;19997;-53
2023/05/29 01:45:20;;;;;;;3.20;2.38;;;17.00;60.90;;;;;;6178162;22;20012;-52
2023/05/29 01:47:47;;;;;;;3.55;2.20;;;17.10;60.80;;;;;;6175822;22;20073;-53
2023/05/29 01:50:17;;;;;;;3.60;2.70;;;17.10;60.60;;;;;;6176995;22;20001;-54
2023/05/29 01:52:43;;;;;;;4.57;2.00;;;17.10;60.60;;;;;;6177585;22;20009;-51
2023/05/29 01:55:09;;;;;;;3.10;2.10;;;17.20;60.60;;;;;;6177372;22;20063;-52
2023/05/29 01:57:35;;;;;;;3.45;2.20;;;17.20;60.50;;;;;;6177643;22;20009;-52
2023/05/29 02:00:08;;;;;;;3.03;2.45;;;17.20;60.20;;;;;;6177146;22;20687;-50
2023/05/29 02:02:40;;;;;;;2.95;2.13;;;17.20;59.80;;;;;;6177315;22;20012;-50
2023/05/29 02:05:07;;;;;;;2.85;2.20;;;17.30;60.00;;;;;;6177535;22;20005;-54
2023/05/29 02:07:34;;;;;;;2.47;2.10;;;17.30;60.00;;;;;;6177730;22;20009;-53
2023/05/29 02:10:00;;;;;;;2.92;2.05;;;17.30;59.80;;;;;;6177129;22;20074;-53
2023/05/29 02:12:25;;;;;;;2.55;2.10;;;17.30;59.80;;;;;;6177490;22;20420;-51
2023/05/29 02:14:51;;;;;;;4.05;2.50;;;17.30;59.70;;;;;;6177373;22;20088;-51
2023/05/29 02:17:19;;;;;;;3.85;2.33;;;17.30;59.40;;;;;;6177515;22;20038;-52
2023/05/29 02:19:44;;;;;;;2.25;1.95;;;17.40;59.40;;;;;;6177602;22;20417;-50
2023/05/29 02:22:10;;;;;;;5.22;2.55;;;17.40;59.40;;;;;;6176347;22;20029;-53
2023/05/29 02:24:36;;;;;;;2.60;2.10;;;17.40;59.50;;;;;;6178291;22;20118;-53
2023/05/29 02:27:02;;;;;;;3.42;2.00;;;17.40;60.20;;;;;;6177123;22;19997;-52
2023/05/29 02:29:28;;;;;;;4.07;2.30;;;17.40;59.70;;;;;;6177308;22;20013;-54
2023/05/29 02:31:54;;;;;;;2.78;1.95;;;17.40;59.50;;;;;;6177288;22;20328;-54
2023/05/29 02:34:22;;;;;;;2.63;1.92;;;17.40;59.40;;;;;;6177491;22;20092;-53
2023/05/29 02:36:48;;;;;;;3.80;2.10;;;17.40;59.40;;;;;;6177904;22;20070;-50
2023/05/29 02:39:14;;;;;;;2.35;1.88;;;17.50;59.50;;;;;;6176265;22;20005;-54
2023/05/29 02:41:39;;;;;;;3.92;2.15;;;17.50;59.40;;;;;;6177200;22;20059;-53
2023/05/29 02:44:05;;;;;;;3.42;2.10;;;17.50;59.10;;;;;;6177266;22;20005;-53
2023/05/29 02:46:31;;;;;;;4.25;2.50;;;17.50;59.20;;;;;;6177421;22;20425;-52
2023/05/29 02:48:56;;;;;;;2.55;2.13;;;17.60;59.60;;;;;;6177147;22;20005;-54
2023/05/29 02:51:22;;;;;;;5.35;2.10;;;17.60;59.70;;;;;;6176927;22;20102;-52
2023/05/29 02:53:48;;;;;;;5.93;2.42;;;17.60;59.40;;;;;;6176224;22;20077;-53
2023/05/29 02:56:15;;;;;;;4.38;2.58;;;17.60;59.60;;;;;;6176385;22;20521;-52
2023/05/29 02:58:41;;;;;;;2.50;2.15;;;17.70;59.60;;;;;;6177192;22;20005;-54
2023/05/29 03:01:07;;;;;;;2.30;2.00;;;17.70;59.60;;;;;;6176943;22;20008;-53
2023/05/29 03:03:33;;;;;;;2.00;1.83;;;17.70;59.60;;;;;;6176767;22;20005;-53
2023/05/29 03:06:00;;;;;;;3.88;2.35;;;17.80;59.40;;;;;;6177142;22;20321;-52
2023/05/29 03:08:27;;;;;;;2.20;2.00;;;17.80;58.90;;;;;;6177376;22;20008;-54
2023/05/29 03:10:54;;;;;;;2.58;2.00;;;17.90;59.00;;;;;;6177264;22;20460;-53
2023/05/29 03:13:20;;;;;;;2.50;2.10;;;17.90;59.00;;;;;;6176840;22;20465;-54
2023/05/29 03:15:45;;;;;;;6.97;2.60;;;17.90;59.10;;;;;;6177825;22;20013;-55
2023/05/29 03:18:11;;;;;;;4.38;1.95;;;18.00;58.80;;;;;;6177208;22;20009;-55
2023/05/29 03:20:37;;;;;;;2.78;2.20;;;18.00;58.40;;;;;;6176944;22;20005;-54
2023/05/29 03:23:03;;;;;;;3.03;1.88;;;18.10;58.20;;;;;;6176693;22;20028;-53
2023/05/29 03:25:29;;;;;;;2.35;2.00;;;18.10;58.20;;;;;;6177181;22;20337;-54
2023/05/29 03:27:55;;;;;;;5.03;2.20;;;18.20;58.50;;;;;;6176685;22;20017;-52
2023/05/29 03:30:22;;;;;;;3.17;2.30;;;18.30;58.10;;;;;;6177414;23;20441;-52
2023/05/29 03:32:47;;;;;;;5.68;2.20;;;18.30;58.00;;;;;;6176718;22;20012;-53
2023/05/29 03:35:13;;;;;;;1.95;1.65;;;18.40;57.60;;;;;;6177097;22;20009;-53
2023/05/29 03:37:39;;;;;;;3.90;2.33;;;18.50;57.20;;;;;;6177267;22;20002;-52
2023/05/29 03:40:05;;;;;;;3.53;2.30;;;18.60;57.20;;;;;;6176855;22;20470;-53
2023/05/29 03:42:33;;;;;;;4.28;2.60;;;18.60;56.90;;;;;;6176611;22;20044;-55
2023/05/29 03:44:59;;;;;;;3.22;1.92;;;18.70;56.90;;;;;;6176874;22;20050;-53
2023/05/29 03:47:24;;;;;;;3.08;2.20;;;18.80;57.00;;;;;;6174706;22;20072;-54
2023/05/29 03:49:51;;;;;;;2.22;2.00;;;18.90;57.20;;;;;;6174786;22;20431;-54
2023/05/29 03:52:17;;;;;;;3.92;1.67;;;19.10;56.90;;;;;;6175218;22;20013;-53
2023/05/29 03:54:44;;;;;;;3.55;2.20;;;19.40;56.60;;;;;;6174716;22;20005;-55
2023/05/29 03:57:10;;;;;;;3.45;1.90;;;20.00;56.00;;;;;;6276113;22;20001;-53
2023/05/29 03:59:36;;;;;;;2.80;2.00;;;20.50;54.90;;;;;;6175150;22;20035;-54
2023/05/29 04:02:02;;;;;;;2.10;1.92;;;21.10;54.10;;;;;;6175874;22;20005;-52
2023/05/29 04:04:28;;;;;;;3.67;1.70;;;21.60;53.50;;;;;;6175329;22;20594;-54
2023/05/29 04:06:53;;;;;;;2.38;1.83;;;22.20;52.30;;;;;;6176712;22;20005;-55
2023/05/29 04:09:19;;;;;;;2.20;2.00;;;22.80;51.60;;;;;;6176962;22;20001;-54
2023/05/29 04:11:46;;;;;;;1.85;1.70;;;23.30;50.50;;;;;;6177507;22;20088;-55
2023/05/29 04:14:11;;;;;;;3.05;2.20;;;23.80;49.50;;;;;;6176486;22;20009;-53
2023/05/29 04:16:37;;;;;;;3.08;1.90;;;24.30;48.40;;;;;;6177641;22;20006;-53
2023/05/29 04:19:03;;;;;;;4.35;1.95;;;24.50;48.00;;;;;;6178041;22;20084;-54
2023/05/29 04:21:29;;;;;;;3.58;1.58;;;24.60;47.80;;;;;;6177906;22;20026;-53
2023/05/29 04:23:55;;;;;;;2.75;1.90;;;24.80;47.80;;;;;;6177603;22;20399;-53
2023/05/29 04:26:24;;;;;;;2.13;1.67;;;25.20;47.50;;;;;;6177313;22;20015;-51
2023/05/29 04:28:52;;;;;;;1.73;1.60;;;25.50;47.30;;;;;;6178441;22;20005;-54
2023/05/29 04:31:18;;;;;;;2.70;1.95;;;26.10;46.90;;;;;;6178240;22;20005;-52
2023/05/29 04:33:45;;;;;;;2.92;1.80;;;26.80;45.90;;;;;;6177824;22;20020;-54
2023/05/29 04:36:10;;;;;;;2.75;1.73;;;27.40;45.20;;;;;;6178293;22;20039;-54
2023/05/29 04:38:36;;;;;;;3.70;2.30;;;27.90;44.50;;;;;;6177895;22;20036;-52
2023/05/29 04:41:02;;;;;;;1.90;1.70;;;28.30;44.00;;;;;;6177599;22;20005;-53
2023/05/29 04:43:28;;;;;;;3.03;1.80;;;28.70;43.40;;;;;;6177293;22;20425;-53
2023/05/29 04:45:53;;;;;;;2.08;1.73;;;29.20;43.00;;;;;;6177445;22;20005;-53
2023/05/29 04:48:19;;;;;;;3.70;1.70;;;29.50;42.50;;;;;;6174961;22;20057;-54
2023/05/29 04:50:45;;;;;;;3.35;1.67;;;29.90;42.40;;;;;;6177523;22;20013;-53
2023/05/29 04:53:11;;;;;;;4.90;1.90;;;30.30;41.90;;;;;;6176331;22;20005;-53
2023/05/29 04:55:36;;;;;;;3.03;1.50;;;30.70;41.50;;;;;;6178020;22;20039;-52
2023/05/29 04:58:02;;;;;;;3.25;1.90;;;31.10;41.20;;;;;;6178519;22;20009;-52
2023/05/29 05:00:28;;;;;;;4.18;2.00;;;31.60;40.50;;;;;;6176905;22;20413;-54
2023/05/29 05:02:54;;;;;;;3.95;2.15;;;31.90;40.20;;;;;;6177028;22;20001;-52
2023/05/29 05:05:20;;;;;;;4.47;1.90;;;32.20;39.70;;;;;;6177119;22;19998;-55
2023/05/29 05:07:45;;;;;;;2.60;1.88;;;32.40;39.40;;;;;;6177581;22;20012;-54
2023/05/29 05:10:11;;;;;;;2.30;2.08;;;32.70;38.90;;;;;;6177797;22;20088;-55
2023/05/29 05:12:37;;;;;;;3.38;1.83;;;32.80;38.60;;;;;;6177125;22;20005;-52
2023/05/29 05:15:03;;;;;;;1.85;1.63;;;33.00;38.50;;;;;;6175160;22;20009;-52
2023/05/29 05:17:29;;;;;;;2.40;1.80;;;33.20;38.00;;;;;;6172652;22;20321;-55
2023/05/29 05:19:54;;;;;;;3.08;1.80;;;33.40;37.80;;;;;;6172183;22;20005;-55
2023/05/29 05:22:20;;;;;;;4.18;1.95;;;33.30;37.60;;;;;;6170767;22;20755;-54
2023/05/29 05:24:46;;;;;;;4.32;2.00;;;33.00;37.30;;;;;;6173851;22;20005;-52
2023/05/29 05:27:12;;;;;;;2.97;1.70;;;32.50;37.40;;;;;;6176288;22;20001;-52
2023/05/29 05:29:38;;;;;;;1.88;1.73;;;31.80;37.80;;;;;;6176799;22;20027;-52
2023/05/29 05:32:04;;;;;;;3.45;2.10;;;31.10;38.30;;;;;;6174695;22;20045;-54
2023/05/29 05:34:29;;;;;;;1.95;1.75;;;30.40;38.80;;;;;;6176365;22;20444;-54
2023/05/29 05:36:55;;;;;;;2.10;1.70;;;29.60;39.30;;;;;;6177108;22;20001;-53
2023/05/29 05:39:21;;;;;;;3.15;2.10;;;28.90;40.10;;;;;;6177040;22;20378;-55
2023/05/29 05:41:46;;;;;;;2.40;1.92;;;28.40;41.30;;;;;;6176163;22;20065;-55
2023/05/29 05:44:12;;;;;;;3.00;2.00;;;27.90;41.60;;;;;;6174730;22;20002;-53
2023/05/29 05:46:37;;;;;;;4.30;2.40;;;27.40;41.60;;;;;;6172750;22;20004;-52
2023/05/29 05:49:03;;;;;;;6.30;2.60;;;26.90;41.90;;;;;;6174502;22;20041;-52
2023/05/29 05:51:28;;;;;;;2.78;2.40;;;26.50;42.60;;;;;;6176403;22;20015;-52
2023/05/29 05:53:54;;;;;;;3.08;2.47;;;26.20;43.00;;;;;;6174979;22;20009;-51
2023/05/29 05:56:20;;;;;;;4.47;2.58;;;25.90;43.50;;;;;;6172965;22;20016;-53
2023/05/29 05:58:45;;;;;;;4.43;2.90;;;25.60;44.10;;;;;;6169963;22;20013;-54
2023/05/29 06:01:11;;;;;;;5.00;2.80;;;25.40;44.50;;;;;;6167544;22;20016;-54
2023/05/29 06:03:37;;;;;;;3.40;2.50;;;25.20;44.80;;;;;;6169781;22;20008;-55
2023/05/29 06:06:03;;;;;;;4.65;2.78;;;25.10;45.10;;;;;;6169943;23;20449;-52
2023/05/29 06:08:29;;;;;;;4.28;2.63;;;24.90;45.70;;;;;;6168904;22;20001;-55
2023/05/29 06:10:55;;;;;;;3.85;2.55;;;24.80;45.90;;;;;;6165648;22;20036;-54
2023/05/29 06:13:20;;;;;;;5.15;2.75;;;24.70;45.80;;;;;;6168957;22;20032;-53
2023/05/29 06:15:46;;;;;;;4.40;2.30;;;24.60;45.90;;;;;;6170156;22;20035;-55
2023/05/29 06:18:12;;;;;;;3.05;2.30;;;24.40;46.10;;;;;;6170683;22;20013;-52
2023/05/29 06:20:38;;;;;;;4.80;2.90;;;24.30;46.30;;;;;;6173338;22;20008;-53
2023/05/29 06:23:03;;;;;;;4.93;2.58;;;24.20;46.80;;;;;;6171765;22;20014;-54
2023/05/29 06:25:33;;;;;;;4.53;2.65;;;24.10;47.30;;;;;;6168705;22;20005;-53
2023/05/29 06:28:02;;;;;;;3.92;2.35;;;24.10;47.60;;;;;;6166104;22;20314;-53
2023/05/29 06:30:28;;;;;;;5.28;2.35;;;24.00;47.30;;;;;;6173930;22;20009;-51
2023/05/29 06:32:54;;;;;;;4.88;2.40;;;23.90;47.50;;;;;;6171444;22;20462;-52
2023/05/29 06:35:20;;;;;;;2.75;2.25;;;23.80;47.80;;;;;;6174408;22;20005;-51
2023/05/29 06:37:46;;;;;;;4.82;2.60;;;23.80;47.70;;;;;;6172053;23;20597;-53
2023/05/29 06:40:13;;;;;;;2.55;2.30;;;23.70;47.50;;;;;;6173383;22;20340;-51
2023/05/29 06:42:38;;;;;;;3.75;2.70;;;23.60;47.70;;;;;;6170555;22;20039;-52
2023/05/29 06:45:04;;;;;;;5.10;2.50;;;23.60;47.70;;;;;;6171903;22;20009;-52
2023/05/29 06:47:31;;;;;;;2.80;2.30;;;23.50;47.60;;;;;;6171613;22;20001;-54
2023/05/29 06:49:56;;;;;;;5.30;2.60;;;23.40;47.80;;;;;;6168451;23;20054;-52
2023/05/29 06:52:22;;;;;;;3.92;2.30;;;23.40;47.90;;;;;;6168619;22;20017;-50
2023/05/29 06:54:48;;;;;;;2.35;2.15;;;23.30;48.00;;;;;;6170806;22;20009;-51
2023/05/29 06:57:13;;;;;;;2.20;1.80;;;23.30;48.30;;;;;;6174045;22;20020;-51
2023/05/29 06:59:39;;;;;;;3.08;2.10;;;23.30;48.50;;;;;;6170120;22;20017;-51
2023/05/29 07:02:05;;;;;;;5.05;2.13;;;23.20;48.80;;;;;;6168910;22;20005;-51
2023/05/29 07:04:31;;;;;;;2.03;1.88;;;23.20;48.70;;;;;;6170855;22;20001;-53
2023/05/29 07:06:56;;;;;;;3.78;2.40;;;23.20;48.70;;;;;;6163304;22;20011;-51
2023/05/29 07:09:22;;;;;;;3.10;2.15;;;23.10;48.90;;;;;;6165748;22;20259;-52
2023/05/29 07:11:47;;;;;;;4.47;2.28;;;23.10;49.70;;;;;;6167119;22;20004;-52
2023/05/29 07:14:14;;;;;;;3.20;2.10;;;23.10;49.40;;;;;;6163756;22;20009;-52
2023/05/29 07:16:39;;;;;;;2.10;1.90;;;23.00;49.20;;;;;;6164797;22;20092;-52
2023/05/29 07:19:05;;;;;;;3.08;2.35;;;23.00;49.50;;;;;;6164535;22;20080;-52
2023/05/29 07:21:31;;;;;;;4.28;2.17;;;23.00;49.70;;;;;;6159315;22;20062;-54
2023/05/29 07:23:57;;;;;;;4.60;2.30;;;23.00;49.50;;;;;;6164660;22;20098;-52
2023/05/29 07:26:22;;;;;;;2.88;2.20;;;22.90;49.40;;;;;;6166124;22;20066;-52
2023/05/29 07:28:49;;;;;;;2.80;2.38;;;22.90;49.60;;;;;;6165731;22;20067;-53
2023/05/29 07:31:14;;;;;;;3.05;2.30;;;22.90;49.60;;;;;;6167455;22;20032;-51
2023/05/29 07:33:41;;;;;;;3.00;2.38;;;22.90;50.00;;;;;;6163279;22;20060;-53
2023/05/29 07:36:07;;;;;;;3.65;2.25;;;22.90;49.90;;;;;;6161417;22;20009;-51
2023/05/29 07:38:33;;;;;;;2.97;2.40;;;22.90;50.20;;;;;;6164321;22;20088;-54
2023/05/29 07:40:58;;;;;;;3.10;2.28;;;22.90;50.20;;;;;;6163311;22;20714;-53
2023/05/29 07:43:24;;;;;;;3.72;2.50;;;22.90;50.00;;;;;;6155423;22;20031;-54
2023/05/29 07:45:49;;;;;;;2.95;2.10;;;22.90;50.30;;;;;;6158088;22;20005;-54
2023/05/29 07:48:15;;;;;;;4.15;2.33;;;22.90;50.70;;;;;;6153135;22;20081;-54
2023/05/29 07:50:41;;;;;;;4.13;2.50;;;22.80;51.40;;;;;;6165024;22;19997;-56
2023/05/29 07:53:06;;;;;;;3.15;2.25;;;22.80;50.30;;;;;;6161796;22;20009;-53
2023/05/29 07:55:33;;;;;;;3.13;2.28;;;22.90;50.20;;;;;;6157168;22;20446;-53
2023/05/29 07:57:59;;;;;;;2.42;2.00;;;22.90;50.50;;;;;;6162160;22;20005;-54
2023/05/29 08:00:25;;;;;;;3.20;2.30;;;22.90;50.60;;;;;;6153153;22;20007;-52
2023/05/29 08:02:51;;;;;;;3.63;2.30;;;22.90;50.40;;;;;;6163768;22;20503;-54
2023/05/29 08:05:17;;;;;;;2.97;2.45;;;22.80;50.30;;;;;;6162428;22;20005;-53
2023/05/29 08:07:43;;;;;;;4.32;2.60;;;22.80;50.40;;;;;;6162268;22;20076;-48
2023/05/29 08:10:09;;;;;;;2.35;2.15;;;22.80;50.60;;;;;;6168218;22;20405;-51
2023/05/29 08:12:35;;;;;;;4.05;2.35;;;22.90;51.40;;;;;;6161059;23;20087;-53
2023/05/29 08:15:02;;;;;;;3.80;2.40;;;22.90;50.80;;;;;;6163645;22;20644;-52
2023/05/29 08:17:27;;;;;;;2.83;2.20;;;22.80;51.20;;;;;;6161930;22;20009;-51
2023/05/29 08:19:53;;;;;;;4.60;2.63;;;22.90;51.10;;;;;;6164480;22;20016;-53
2023/05/29 08:22:19;;;;;;;3.00;2.20;;;22.90;51.30;;;;;;6154728;22;20025;-54
2023/05/29 08:24:44;;;;;;;3.67;2.45;;;22.90;51.40;;;;;;6160341;22;20393;-53
2023/05/29 08:27:10;;;;;;;3.88;2.70;;;22.90;51.80;;;;;;6153861;22;20013;-54
2023/05/29 08:29:37;;;;;;;4.78;2.53;;;22.90;52.80;;;;;;6165853;22;20016;-52
2023/05/29 08:32:03;;;;;;;3.67;2.45;;;22.90;52.00;;;;;;6158073;22;20009;-53
2023/05/29 08:34:28;;;;;;;5.60;3.30;;;22.90;52.00;;;;;;6161147;22;20013;-54
2023/05/29 08:36:55;;;;;;;4.10;3.08;;;22.90;52.00;;;;;;6159711;22;20066;-51
2023/05/29 08:39:20;;;;;;;6.10;3.45;;;22.90;52.20;;;;;;6157701;22;20008;-52
2023/05/29 08:42:06;;;;;;;7.80;4.32;;;22.90;51.90;;;;;;6160494;22;20421;-55
2023/05/29 08:44:33;;;;;;;5.35;3.17;;;22.90;52.20;;;;;;6158636;22;20012;-53
2023/05/29 08:47:06;;;;;;;6.22;4.22;;;22.90;52.40;;;;;;6160244;22;20008;-54
2023/05/29 08:49:42;;;;;;;7.00;3.88;;;22.90;53.00;;;;;;6159119;22;20070;-54
2023/05/29 08:52:20;;;;;;;4.70;3.70;;;22.90;52.90;;;;;;6159669;22;20005;-53
2023/05/29 08:54:46;;;;;;;5.95;3.53;;;22.90;53.00;;;;;;6161352;22;20392;-52
2023/05/29 08:57:12;;;;;;;6.53;3.25;;;22.90;53.00;;;;;;6160967;22;20012;-55
2023/05/29 08:59:42;;;;;;;5.10;3.17;;;22.90;53.30;;;;;;6161893;23;20838;-52
2023/05/29 09:02:08;;;;;;;3.10;2.63;;;22.80;53.00;;;;;;6160668;22;20005;-53
2023/05/29 09:04:34;;;;;;;4.85;2.80;;;22.80;52.90;;;;;;6162178;23;20009;-54
2023/05/29 09:06:59;;;;;;;4.22;2.53;;;22.80;53.10;;;;;;6163731;22;20007;-54
2023/05/29 09:09:29;;;;;;;5.53;2.63;;;22.80;53.00;;;;;;6163856;22;20005;-54
2023/05/29 09:11:56;;;;;;;4.05;2.45;;;22.80;53.00;;;;;;6164778;22;20009;-53
2023/05/29 09:14:41;;;;;;;4.63;2.60;;;22.80;53.60;;;;;;6160375;22;20036;-55
2023/05/29 09:17:08;;;;;;;3.50;2.53;;;22.70;53.80;;;;;;6164903;22;20133;-54
2023/05/29 09:19:34;;;;;;;4.97;2.92;;;22.70;53.60;;;;;;6160602;22;20021;-53
2023/05/29 09:22:17;;;;;;;5.30;2.80;;;22.70;53.70;;;;;;6163013;22;20593;-52
2023/05/29 09:24:47;;;;;;;5.10;3.03;;;22.70;54.00;;;;;;6159134;22;20013;-55
2023/05/29 09:27:13;;;;;;;3.53;2.58;;;22.70;54.50;;;;;;6151185;22;20016;-54
2023/05/29 09:29:40;;;;;;;4.03;2.63;;;22.70;54.10;;;;;;6161305;22;20016;-52
2023/05/29 09:32:12;;;;;;;4.70;2.70;;;22.80;54.00;;;;;;6157018;22;20013;-53
2023/05/29 09:34:39;;;;;;;3.80;2.53;;;22.80;54.40;;;;;;6262675;22;20009;-54
2023/05/29 09:37:10;;;;;;;4.43;2.60;;;22.80;54.40;;;;;;6160680;22;20345;-53
2023/05/29 09:39:41;;;;;;;5.60;2.83;;;22.90;54.90;;;;;;6157428;22;20012;-53
2023/05/29 09:42:09;;;;;;;2.60;2.40;;;22.90;55.00;;;;;;6158125;22;20071;-55
2023/05/29 09:44:34;;;;;;;5.00;2.55;;;23.00;54.80;;;;;;6156813;22;20015;-52
2023/05/29 09:47:00;;;;;;;3.75;2.40;;;23.10;54.70;;;;;;6158736;22;20013;-53
2023/05/29 09:49:27;;;;;;;5.20;2.97;;;23.10;54.60;;;;;;6160424;22;20008;-52
2023/05/29 09:51:59;;;;;;;4.20;2.80;;;23.20;54.20;;;;;;6158841;22;20020;-54
2023/05/29 09:54:28;;;;;;;4.75;3.10;;;23.20;54.10;;;;;;6157507;22;20060;-53
2023/05/29 09:56:55;;;;;;;4.10;2.75;;;23.30;54.20;;;;;;6160527;22;20012;-54
2023/05/29 09:59:24;;;;;;;2.88;2.30;;;23.30;54.20;;;;;;6158996;22;20040;-51
2023/05/29 10:02:03;;;;;;;5.55;2.40;;;23.30;53.70;;;;;;6159049;22;20009;-54
2023/05/29 10:04:32;;;;;;;3.65;2.92;;;23.40;54.00;;;;;;6157021;22;20005;-55
2023/05/29 10:07:03;;;;;;;5.47;2.90;;;23.40;53.40;;;;;;6159309;22;20005;-54
2023/05/29 10:09:29;;;;;;;3.03;2.20;;;23.30;53.40;;;;;;6159390;22;20005;-54
2023/05/29 10:12:00;;;;;;;3.75;2.40;;;23.40;53.60;;;;;;6161734;22;20777;-54
2023/05/29 10:14:27;;;;;;;3.78;2.85;;;23.40;53.20;;;;;;6155743;22;20028;-55
2023/05/29 10:16:58;;;;;;;4.18;2.90;;;23.30;53.10;;;;;;6159876;22;20715;-53
2023/05/29 10:19:31;;;;;;;3.00;2.58;;;23.30;53.40;;;;;;6157534;22;20013;-54
2023/05/29 10:21:57;;;;;;;4.30;2.70;;;23.30;54.40;;;;;;6154017;22;20008;-55
2023/05/29 10:24:24;;;;;;;4.60;3.00;;;23.30;54.20;;;;;;6157722;22;20307;-55
2023/05/29 10:26:51;;;;;;;4.63;2.97;;;23.30;54.50;;;;;;6160489;22;20001;-52
2023/05/29 10:29:32;;;;;;;5.35;3.55;;;23.30;54.70;;;;;;6162401;22;20009;-53
2023/05/29 10:31:58;;;;;;;;;;;23.30;54.70;;;;;;6159224;22;20012;-55
2023/05/29 10:34:45;;;;;;;3.70;2.80;;;23.30;54.80;;;;;;6160776;22;19904;-55
2023/05/29 10:37:11;;;;;;;4.38;3.17;;;23.30;54.30;;;;;;6160189;22;20005;-55
2023/05/29 10:39:37;;;;;;;9.55;3.58;;;23.30;54.20;;;;;;6159591;22;20019;-52
2023/05/29 10:42:03;;;;;;;4.65;2.80;;;23.30;54.40;;;;;;6161127;22;20067;-54
2023/05/29 10:44:32;;;;;;;4.15;2.78;;;23.40;54.40;;;;;;6160769;22;20096;-54
2023/05/29 10:47:01;;;;;;;3.45;2.90;;;23.40;54.50;;;;;;6165498;22;20001;-54
2023/05/29 10:49:28;;;;;;;6.35;3.08;;;23.40;55.30;;;;;;6162388;22;20415;-53
2023/05/29 10:51:54;;;;;;;3.15;2.70;;;23.40;55.40;;;;;;6160741;22;20005;-55
2023/05/29 10:54:23;;;;;;;3.55;2.67;;;23.50;54.70;;;;;;6161265;22;20066;-53
2023/05/29 10:57:00;;;;;;;4.72;2.60;;;23.50;54.50;;;;;;6163113;22;20016;-53
2023/05/29 10:59:27;;;;;;;6.35;2.80;;;23.50;54.50;;;;;;6163166;22;20015;-53
2023/05/29 11:01:54;;;;;;;3.53;2.53;;;23.60;55.20;;;;;;6153551;22;20083;-56
2023/05/29 11:04:20;;;;;;;5.18;2.78;;;23.60;54.80;;;;;;6160546;22;20005;-51
2023/05/29 11:06:46;;;;;;;5.10;2.80;;;23.60;55.30;;;;;;6160365;22;20369;-54
2023/05/29 11:09:31;;;;;;;3.70;3.25;;;23.60;55.20;;;;;;6154565;22;20405;-53
2023/05/29 11:15:14;;;;;;;4.07;2.90;;;23.60;53.70;;;;;;6170327;22;20079;-55
2023/05/29 11:17:39;;;;;;;4.65;3.17;;;23.60;53.90;;;;;;6157806;22;20036;-54
2023/05/29 11:20:07;;;;;;;3.03;2.65;;;23.60;54.00;;;;;;6162737;22;20005;-55
2023/05/29 11:22:48;;;;;;;4.55;2.72;;;23.60;54.40;;;;;;6145795;22;20021;-56
2023/05/29 11:25:15;;;;;;;3.45;2.90;;;23.60;54.80;;;;;;6160681;22;20001;-54
2023/05/29 11:27:42;;;;;;;10.40;3.22;;;23.60;55.20;;;;;;6161403;22;20038;-54
2023/05/29 11:30:08;;;;;;;6.32;2.90;;;23.60;55.80;;;;;;6161156;22;20014;-52
2023/05/29 11:32:36;;;;;;;5.07;2.88;;;23.60;55.60;;;;;;6164239;23;20325;-55
2023/05/29 11:35:08;;;;;;;5.38;3.10;;;23.60;55.30;;;;;;6161263;22;20009;-55
2023/05/29 11:37:36;;;;;;;5.07;2.83;;;23.60;55.60;;;;;;6164554;22;20009;-54
2023/05/29 11:40:06;;;;;;;6.50;3.10;;;23.60;55.70;;;;;;6161024;22;20048;-56
2023/05/29 11:42:31;;;;;;;5.57;2.70;;;23.60;55.60;;;;;;6159851;22;20009;-55
2023/05/29 11:45:36;;;;;;;4.63;2.90;;;23.60;55.50;;;;;;6161730;22;20302;-54
2023/05/29 11:48:03;;;;;;;4.32;2.92;;;23.70;55.30;;;;;;6193935;23;20030;-56
2023/05/29 11:50:30;;;;;;;5.72;3.17;;;23.60;56.00;;;;;;6163098;22;20094;-56
2023/05/29 11:52:57;;;;;;;5.15;2.92;;;23.60;55.30;;;;;;6160440;22;20087;-57
2023/05/29 11:55:24;;;;;;;5.80;2.80;;;23.60;55.10;;;;;;6161837;23;20028;-55
2023/05/29 11:58:00;;;;;;;4.47;3.40;;;23.60;55.40;;;;;;6266655;22;20062;-56
2023/05/29 12:00:34;;;;;;;4.57;3.20;;;23.50;55.70;;;;;;6158042;22;20009;-56
2023/05/29 12:03:03;;;;;;;3.80;3.28;;;23.60;56.30;;;;;;6157859;22;20020;-55
2023/05/29 12:05:43;;;;;;;5.10;3.20;;;23.50;55.70;;;;;;6158660;22;20688;-53
2023/05/29 12:08:09;;;;;;;3.60;2.75;;;23.50;55.80;;;;;;6161711;23;20271;-52
2023/05/29 12:10:35;;;;;;;5.90;3.22;;;23.40;55.70;;;;;;6160239;22;20009;-51
2023/05/29 12:13:01;;;;;;;5.63;3.03;;;23.50;55.90;;;;;;6156460;22;20013;-54
2023/05/29 12:15:27;;;;;;;4.32;3.10;;;23.50;55.80;;;;;;6162283;22;20080;-51
2023/05/29 12:17:54;;;;;;;4.18;2.90;;;23.50;55.60;;;;;;6158304;22;20009;-53
2023/05/29 12:20:23;;;;;;;4.65;2.90;;;23.50;56.30;;;;;;6160525;22;20017;-53
2023/05/29 12:22:49;;;;;;;3.83;2.90;;;23.50;55.60;;;;;;6155464;22;20025;-56
2023/05/29 12:25:17;;;;;;;5.95;2.72;;;23.50;55.40;;;;;;6157316;22;20067;-51
2023/05/29 12:27:46;;;;;;;5.43;3.35;;;23.50;55.30;;;;;;6158610;23;20021;-53
2023/05/29 12:30:17;;;;;;;3.28;2.60;;;23.50;55.90;;;;;;6160671;22;20500;-54
2023/05/29 12:32:53;;;;;;;4.10;2.88;;;23.50;55.80;;;;;;6159274;22;20013;-54
2023/05/29 12:35:29;;;;;;;5.03;2.95;;;23.50;54.30;;;;;;6159505;22;20035;-55
2023/05/29 12:37:57;;;;;;;4.95;2.88;;;23.50;53.60;;;;;;6162463;22;20306;-55
2023/05/29 12:40:25;;;;;;;3.35;2.70;;;23.50;53.50;;;;;;6158539;22;20013;-55
2023/05/29 12:43:05;;;;;;;3.97;2.60;;;23.40;53.70;;;;;;6165745;22;20085;-55
2023/05/29 12:45:32;;;;;;;3.67;2.70;;;23.40;54.50;;;;;;6158734;23;20001;-55
2023/05/29 12:48:07;;;;;;;4.40;3.08;;;23.40;55.00;;;;;;6162764;22;20016;-51
2023/05/29 12:50:39;;;;;;;4.70;2.80;;;23.40;55.00;;;;;;6164312;22;20344;-54
2023/05/29 12:53:13;;;;;;;4.90;3.20;;;23.40;55.10;;;;;;6171390;22;20005;-53